createdAt,value
2017-04-11T00:00:44.240Z,9.20
2017-04-11T00:01:42.627Z,9.20
2017-04-11T00:02:41.416Z,9.20
2017-04-11T00:03:39.859Z,9.30
2017-04-11T00:04:38.254Z,9.30
2017-04-11T00:05:37.043Z,9.20
2017-04-11T00:06:36.247Z,9.20
2017-04-11T00:07:34.644Z,9.20
2017-04-11T00:08:33.789Z,9.20
2017-04-11T00:09:32.203Z,9.20
2017-04-11T00:10:31.419Z,9.20
2017-04-11T00:11:29.951Z,9.20
2017-04-11T00:12:33.851Z,9.10
2017-04-11T00:13:33.046Z,9.00
2017-04-11T00:14:32.191Z,9.00
2017-04-11T00:15:30.652Z,9.00
2017-04-11T00:16:29.514Z,9.10
2017-04-11T00:17:28.026Z,9.10
2017-04-11T00:18:26.489Z,9.10
2017-04-11T00:19:24.964Z,9.10
2017-04-11T00:20:23.398Z,9.10
2017-04-11T00:21:21.801Z,9.10
2017-04-11T00:22:21.210Z,9.10
2017-04-11T00:23:19.574Z,9.10
2017-04-11T00:24:17.998Z,9.10
2017-04-11T00:25:17.089Z,9.10
2017-04-11T00:26:15.517Z,9.10
2017-04-11T00:27:14.657Z,9.00
2017-04-11T00:28:13.031Z,9.10
2017-04-11T00:29:11.414Z,9.00
2017-04-11T00:30:09.821Z,9.00
2017-04-11T00:31:09.050Z,9.00
2017-04-11T00:32:07.485Z,9.10
2017-04-11T00:33:05.905Z,9.10
2017-04-11T00:34:04.315Z,9.10
2017-04-11T00:35:03.528Z,9.10
2017-04-11T00:36:01.911Z,9.10
2017-04-11T00:37:00.948Z,9.10
2017-04-11T00:38:00.169Z,9.00
2017-04-11T00:38:58.565Z,9.00
2017-04-11T00:39:56.952Z,9.00
2017-04-11T00:40:55.324Z,9.00
2017-04-11T00:41:53.749Z,9.00
2017-04-11T00:42:52.564Z,9.00
2017-04-11T00:43:50.964Z,9.00
2017-04-11T00:44:50.087Z,9.00
2017-04-11T00:45:48.470Z,9.00
2017-04-11T00:46:46.880Z,9.00
2017-04-11T00:47:45.964Z,9.00
2017-04-11T00:48:45.511Z,8.90
2017-04-11T00:49:43.940Z,9.00
2017-04-11T00:50:43.059Z,9.00
2017-04-11T00:51:41.503Z,9.00
2017-04-11T00:52:40.668Z,9.00
2017-04-11T00:53:40.432Z,8.90
2017-04-11T00:54:38.926Z,8.90
2017-04-11T00:55:37.355Z,8.90
2017-04-11T00:56:35.791Z,8.90
2017-04-11T00:57:34.919Z,8.90
2017-04-11T00:58:33.308Z,9.00
2017-04-11T00:59:31.678Z,9.00
2017-04-11T01:00:30.462Z,9.00
2017-04-11T01:01:28.933Z,9.00
2017-04-11T01:02:27.329Z,8.90
2017-04-11T01:03:26.462Z,8.90
2017-04-11T01:04:24.858Z,8.90
2017-04-11T01:05:23.290Z,9.00
2017-04-11T01:06:21.819Z,9.00
2017-04-11T01:07:20.956Z,8.90
2017-04-11T01:08:19.410Z,8.90
2017-04-11T01:09:17.822Z,8.90
2017-04-11T01:10:17.235Z,8.90
2017-04-11T01:11:15.719Z,8.90
2017-04-11T01:12:15.256Z,8.90
2017-04-11T01:13:13.626Z,8.90
2017-04-11T01:14:12.040Z,8.80
2017-04-11T01:15:10.411Z,8.80
2017-04-11T01:16:09.558Z,8.80
2017-04-11T01:17:07.980Z,8.80
2017-04-11T01:18:07.292Z,8.70
2017-04-11T01:19:05.732Z,8.70
2017-04-11T01:20:04.819Z,8.70
2017-04-11T01:21:04.302Z,8.70
2017-04-11T01:22:02.708Z,8.70
2017-04-11T01:23:01.109Z,8.60
2017-04-11T01:23:59.555Z,8.60
2017-04-11T01:24:58.010Z,8.60
2017-04-11T01:25:56.443Z,8.60
2017-04-11T01:26:54.794Z,8.60
2017-04-11T01:27:53.174Z,8.60
2017-04-11T01:28:51.573Z,8.60
2017-04-11T01:29:50.826Z,8.50
2017-04-11T01:30:49.202Z,8.60
2017-04-11T01:31:47.589Z,8.60
2017-04-11T01:32:46.723Z,8.70
2017-04-11T01:33:45.179Z,8.70
2017-04-11T01:34:45.831Z,8.70
2017-04-11T01:35:44.334Z,8.70
2017-04-11T01:36:42.787Z,8.60
2017-04-11T01:37:41.244Z,8.60
2017-04-11T01:38:39.991Z,8.70
2017-04-11T01:39:38.746Z,8.70
2017-04-11T01:40:37.913Z,8.70
2017-04-11T01:41:37.281Z,8.80
2017-04-11T01:42:35.736Z,8.70
2017-04-11T01:43:34.168Z,8.70
2017-04-11T01:44:33.968Z,8.70
2017-04-11T01:45:33.472Z,8.60
2017-04-11T01:46:31.872Z,8.70
2017-04-11T01:47:31.201Z,8.70
2017-04-11T01:48:29.574Z,8.60
2017-04-11T01:49:28.699Z,8.60
2017-04-11T01:50:27.681Z,8.60
2017-04-11T01:51:26.044Z,8.60
2017-04-11T01:52:24.454Z,8.70
2017-04-11T01:53:24.725Z,8.60
2017-04-11T01:54:23.135Z,8.60
2017-04-11T01:55:21.606Z,8.50
2017-04-11T01:56:19.982Z,8.60
2017-04-11T01:57:18.386Z,8.50
2017-04-11T01:58:17.531Z,8.40
2017-04-11T01:59:15.951Z,8.40
2017-04-11T02:00:14.801Z,8.40
2017-04-11T02:01:13.290Z,8.40
2017-04-11T02:02:14.558Z,8.30
2017-04-11T02:03:14.006Z,8.30
2017-04-11T02:04:12.403Z,8.30
2017-04-11T02:05:10.833Z,8.40
2017-04-11T02:06:09.214Z,8.40
2017-04-11T02:07:08.407Z,8.40
2017-04-11T02:08:07.539Z,8.30
2017-04-11T02:09:05.935Z,8.30
2017-04-11T02:10:04.381Z,8.30
2017-04-11T02:11:02.892Z,8.30
2017-04-11T02:12:01.341Z,8.30
2017-04-11T02:12:59.755Z,8.30
2017-04-11T02:13:58.916Z,8.30
2017-04-11T02:14:57.318Z,8.40
2017-04-11T02:15:55.709Z,8.30
2017-04-11T02:16:54.153Z,8.30
2017-04-11T02:17:52.600Z,8.30
2017-04-11T02:18:50.941Z,8.30
2017-04-11T02:19:49.346Z,8.20
2017-04-11T02:20:48.506Z,8.20
2017-04-11T02:21:47.615Z,8.30
2017-04-11T02:22:46.772Z,8.30
2017-04-11T02:23:45.201Z,8.30
2017-04-11T02:24:43.590Z,8.30
2017-04-11T02:25:41.958Z,8.30
2017-04-11T02:26:41.143Z,8.30
2017-04-11T02:27:40.050Z,8.20
2017-04-11T02:29:38.239Z,8.10
2017-04-11T02:30:36.643Z,8.20
2017-04-11T02:31:35.077Z,8.20
2017-04-11T02:32:33.468Z,8.30
2017-04-11T02:33:32.726Z,8.30
2017-04-11T02:34:31.298Z,8.20
2017-04-11T02:35:29.683Z,8.30
2017-04-11T02:36:28.823Z,8.20
2017-04-11T02:37:27.339Z,8.30
2017-04-11T02:38:26.505Z,8.20
2017-04-11T02:39:25.660Z,8.20
2017-04-11T02:40:24.135Z,8.30
2017-04-11T02:41:22.571Z,8.20
2017-04-11T02:42:22.536Z,8.10
2017-04-11T02:43:21.665Z,8.10
2017-04-11T02:44:20.777Z,8.00
2017-04-11T02:45:20.144Z,8.00
2017-04-11T02:46:19.367Z,7.90
2017-04-11T02:47:17.722Z,7.90
2017-04-11T02:48:16.947Z,7.80
2017-04-11T02:49:15.349Z,7.80
2017-04-11T02:50:14.506Z,7.80
2017-04-11T02:51:12.897Z,7.90
2017-04-11T02:52:12.151Z,7.90
2017-04-11T02:53:10.547Z,7.90
2017-04-11T02:54:08.931Z,7.80
2017-04-11T02:55:08.097Z,7.80
2017-04-11T02:56:06.489Z,7.70
2017-04-11T02:57:08.195Z,7.70
2017-04-11T02:58:06.597Z,7.70
2017-04-11T02:59:05.729Z,7.70
2017-04-11T03:00:04.150Z,7.70
2017-04-11T03:01:03.297Z,7.80
2017-04-11T03:02:01.698Z,7.80
2017-04-11T03:03:00.090Z,7.90
2017-04-11T03:03:59.875Z,7.80
2017-04-11T03:04:59.038Z,7.80
2017-04-11T03:05:57.498Z,7.80
2017-04-11T03:06:55.879Z,7.90
2017-04-11T03:08:54.392Z,7.80
2017-04-11T03:09:53.588Z,7.70
2017-04-11T03:10:51.957Z,7.70
2017-04-11T03:11:51.075Z,7.70
2017-04-11T03:12:49.486Z,7.70
2017-04-11T03:13:47.886Z,7.70
2017-04-11T03:14:46.285Z,7.80
2017-04-11T03:15:44.727Z,7.90
2017-04-11T03:16:44.126Z,7.90
2017-04-11T03:17:42.532Z,7.90
2017-04-11T03:18:41.234Z,7.90
2017-04-11T03:19:40.667Z,7.90
2017-04-11T03:20:39.063Z,7.90
2017-04-11T03:21:37.475Z,7.90
2017-04-11T03:22:36.629Z,7.90
2017-04-11T03:23:35.040Z,7.90
2017-04-11T03:24:34.160Z,7.90
2017-04-11T03:25:32.566Z,7.90
2017-04-11T03:26:30.938Z,7.90
2017-04-11T03:27:29.389Z,7.90
2017-04-11T03:28:27.812Z,7.90
2017-04-11T03:29:26.207Z,8.00
2017-04-11T03:30:24.621Z,7.90
2017-04-11T03:31:23.330Z,7.90
2017-04-11T03:32:21.740Z,8.00
2017-04-11T03:33:20.154Z,8.00
2017-04-11T03:34:19.301Z,7.90
2017-04-11T03:35:17.702Z,7.90
2017-04-11T03:36:16.869Z,7.80
2017-04-11T03:37:16.041Z,7.80
2017-04-11T03:38:14.422Z,7.90
2017-04-11T03:39:12.795Z,7.90
2017-04-11T03:40:12.030Z,7.90
2017-04-11T03:41:10.423Z,7.90
2017-04-11T03:42:08.869Z,7.80
2017-04-11T03:43:07.345Z,7.80
2017-04-11T03:44:05.745Z,7.80
2017-04-11T03:45:04.123Z,7.80
2017-04-11T03:46:03.863Z,7.70
2017-04-11T03:47:02.991Z,7.70
2017-04-11T03:48:02.115Z,7.70
2017-04-11T03:49:01.226Z,7.70
2017-04-11T03:49:59.606Z,7.70
2017-04-11T03:50:57.994Z,7.60
2017-04-11T03:51:56.413Z,7.60
2017-04-11T03:52:55.560Z,7.60
2017-04-11T03:53:54.738Z,7.60
2017-04-11T03:54:53.116Z,7.50
2017-04-11T03:55:51.535Z,7.60
2017-04-11T03:56:50.691Z,7.50
2017-04-11T03:57:49.111Z,7.40
2017-04-11T03:58:47.480Z,7.40
2017-04-11T03:59:45.842Z,7.40
2017-04-11T04:00:44.252Z,7.40
2017-04-11T04:01:42.630Z,7.40
2017-04-11T04:02:41.036Z,7.40
2017-04-11T04:03:40.522Z,7.30
2017-04-11T04:04:39.649Z,7.30
2017-04-11T04:05:38.038Z,7.30
2017-04-11T04:06:36.437Z,7.30
2017-04-11T04:07:34.807Z,7.20
2017-04-11T04:08:33.985Z,7.20
2017-04-11T04:09:34.720Z,7.20
2017-04-11T04:10:33.855Z,7.20
2017-04-11T04:11:32.257Z,7.10
2017-04-11T04:12:30.631Z,7.20
2017-04-11T04:13:29.013Z,7.20
2017-04-11T04:14:27.465Z,7.20
2017-04-11T04:15:25.895Z,7.20
2017-04-11T04:16:24.346Z,7.30
2017-04-11T04:17:22.727Z,7.30
2017-04-11T04:18:21.143Z,7.30
2017-04-11T04:19:19.529Z,7.20
2017-04-11T04:20:18.679Z,7.20
2017-04-11T04:21:17.117Z,7.20
2017-04-11T04:22:15.490Z,7.20
2017-04-11T04:23:13.907Z,7.20
2017-04-11T04:24:12.350Z,7.20
2017-04-11T04:25:10.744Z,7.20
2017-04-11T04:26:09.127Z,7.20
2017-04-11T04:27:08.262Z,7.20
2017-04-11T04:28:07.255Z,7.20
2017-04-11T04:29:05.668Z,7.10
2017-04-11T04:30:05.789Z,7.00
2017-04-11T04:31:04.979Z,7.00
2017-04-11T04:32:04.119Z,7.10
2017-04-11T04:33:02.521Z,7.10
2017-04-11T04:34:01.671Z,7.00
2017-04-11T04:35:00.103Z,7.00
2017-04-11T04:35:58.505Z,7.00
2017-04-11T04:36:58.630Z,7.00
2017-04-11T04:37:57.636Z,7.00
2017-04-11T04:38:56.810Z,7.00
2017-04-11T04:39:55.190Z,7.00
2017-04-11T04:40:54.351Z,7.00
2017-04-11T04:41:52.756Z,7.10
2017-04-11T04:42:51.903Z,7.00
2017-04-11T04:43:50.263Z,7.00
2017-04-11T04:44:48.648Z,6.90
2017-04-11T04:45:47.063Z,6.90
2017-04-11T04:46:45.771Z,6.90
2017-04-11T04:47:44.199Z,6.90
2017-04-11T04:48:43.331Z,6.90
2017-04-11T04:49:41.736Z,6.90
2017-04-11T04:50:41.323Z,6.90
2017-04-11T04:51:39.791Z,6.90
2017-04-11T04:52:38.363Z,6.90
2017-04-11T04:53:37.495Z,6.90
2017-04-11T04:54:35.851Z,7.00
2017-04-11T04:55:35.547Z,6.90
2017-04-11T04:56:34.720Z,7.00
2017-04-11T04:57:33.870Z,7.00
2017-04-11T04:58:32.235Z,7.10
2017-04-11T04:59:30.947Z,7.10
2017-04-11T05:00:29.367Z,7.00
2017-04-11T05:01:28.124Z,7.10
2017-04-11T05:02:26.575Z,7.10
2017-04-11T05:03:25.722Z,7.10
2017-04-11T05:04:24.121Z,7.10
2017-04-11T05:05:22.518Z,7.10
2017-04-11T05:06:21.000Z,7.10
2017-04-11T05:07:19.428Z,7.10
2017-04-11T05:08:17.866Z,7.10
2017-04-11T05:09:16.287Z,7.10
2017-04-11T05:10:15.447Z,7.10
2017-04-11T05:11:13.944Z,7.00
2017-04-11T05:12:13.107Z,7.00
2017-04-11T05:13:11.488Z,7.00
2017-04-11T05:14:09.896Z,7.00
2017-04-11T05:15:08.649Z,7.00
2017-04-11T05:16:07.072Z,7.00
2017-04-11T05:17:05.613Z,7.00
2017-04-11T05:18:04.003Z,6.90
2017-04-11T05:19:02.435Z,6.90
2017-04-11T05:20:00.871Z,6.90
2017-04-11T05:20:59.295Z,7.00
2017-04-11T05:21:57.690Z,6.90
2017-04-11T05:22:56.101Z,6.90
2017-04-11T05:23:55.246Z,6.90
2017-04-11T05:24:53.804Z,6.90
2017-04-11T05:25:52.255Z,7.00
2017-04-11T05:26:50.656Z,6.90
2017-04-11T05:27:49.045Z,6.90
2017-04-11T05:28:47.432Z,6.90
2017-04-11T05:29:46.577Z,7.00
2017-04-11T05:30:45.048Z,7.00
2017-04-11T05:31:43.446Z,7.00
2017-04-11T05:32:41.979Z,7.00
2017-04-11T05:33:40.445Z,7.00
2017-04-11T05:34:38.866Z,7.10
2017-04-11T05:35:38.422Z,7.10
2017-04-11T05:36:36.832Z,7.00
2017-04-11T05:37:35.196Z,7.10
2017-04-11T05:38:33.587Z,7.10
2017-04-11T05:39:32.831Z,7.20
2017-04-11T05:40:31.187Z,7.30
2017-04-11T05:41:29.567Z,7.30
2017-04-11T05:42:28.031Z,7.20
2017-04-11T05:43:26.457Z,7.20
2017-04-11T05:44:24.853Z,7.30
2017-04-11T05:45:23.223Z,7.40
2017-04-11T05:46:21.635Z,7.40
2017-04-11T05:47:20.101Z,7.40
2017-04-11T05:48:18.620Z,7.40
2017-04-11T05:49:17.055Z,7.40
2017-04-11T05:50:15.432Z,7.40
2017-04-11T05:51:14.549Z,7.30
2017-04-11T05:52:13.010Z,7.40
2017-04-11T05:53:11.447Z,7.40
2017-04-11T05:54:10.621Z,7.30
2017-04-11T05:55:09.086Z,7.40
2017-04-11T05:56:07.597Z,7.40
2017-04-11T05:57:06.736Z,7.50
2017-04-11T05:58:05.122Z,7.50
2017-04-11T05:59:03.517Z,7.40
2017-04-11T06:00:02.655Z,7.50
2017-04-11T06:01:01.413Z,7.50
2017-04-11T06:01:59.888Z,7.50
2017-04-11T06:02:58.248Z,7.50
2017-04-11T06:03:56.654Z,7.50
2017-04-11T06:04:55.377Z,7.50
2017-04-11T06:05:53.787Z,7.50
2017-04-11T06:06:52.279Z,7.50
2017-04-11T06:07:53.458Z,7.40
2017-04-11T06:08:51.897Z,7.40
2017-04-11T06:09:52.840Z,7.50
2017-04-11T06:10:51.229Z,7.60
2017-04-11T06:11:49.612Z,7.70
2017-04-11T06:12:48.503Z,7.80
2017-04-11T06:13:46.951Z,7.90
2017-04-11T06:14:45.379Z,7.90
2017-04-11T06:15:44.515Z,8.00
2017-04-11T06:16:42.913Z,8.00
2017-04-11T06:17:41.924Z,8.00
2017-04-11T06:18:41.075Z,8.00
2017-04-11T06:19:39.497Z,8.20
2017-04-11T06:20:37.971Z,8.10
2017-04-11T06:21:36.390Z,8.10
2017-04-11T06:22:34.846Z,8.20
2017-04-11T06:23:33.220Z,8.40
2017-04-11T06:24:31.674Z,8.50
2017-04-11T06:25:30.068Z,8.60
2017-04-11T06:26:28.506Z,8.70
2017-04-11T06:27:26.908Z,8.60
2017-04-11T06:28:25.291Z,8.70
2017-04-11T06:29:24.254Z,8.80
2017-04-11T06:30:22.633Z,8.80
2017-04-11T06:31:21.025Z,8.90
2017-04-11T06:32:20.188Z,9.00
2017-04-11T06:33:18.610Z,9.10
2017-04-11T06:34:16.988Z,9.20
2017-04-11T06:35:15.443Z,8.90
2017-04-11T06:36:14.681Z,8.80
2017-04-11T06:37:13.101Z,8.80
2017-04-11T06:38:11.558Z,8.80
2017-04-11T06:39:10.680Z,8.80
2017-04-11T06:40:09.143Z,8.90
2017-04-11T06:41:07.548Z,9.00
2017-04-11T06:42:05.934Z,9.00
2017-04-11T06:43:04.334Z,9.10
2017-04-11T06:44:02.756Z,9.20
2017-04-11T06:45:01.147Z,9.20
2017-04-11T06:46:00.899Z,9.20
2017-04-11T06:46:59.344Z,9.30
2017-04-11T06:47:57.744Z,9.30
2017-04-11T06:48:56.129Z,9.40
2017-04-11T06:49:54.557Z,9.30
2017-04-11T06:50:52.976Z,9.30
2017-04-11T06:51:51.351Z,9.40
2017-04-11T06:52:49.759Z,9.50
2017-04-11T06:53:48.177Z,9.50
2017-04-11T06:54:46.901Z,9.60
2017-04-11T06:55:45.980Z,9.70
2017-04-11T06:56:44.394Z,9.80
2017-04-11T06:58:24.315Z,9.90
2017-04-11T06:59:23.114Z,9.90
2017-04-11T07:00:21.482Z,9.90
2017-04-11T07:01:19.916Z,10.00
2017-04-11T07:02:18.337Z,9.90
2017-04-11T07:03:17.741Z,9.80
2017-04-11T07:04:16.122Z,9.80
2017-04-11T07:05:15.235Z,9.90
2017-04-11T07:06:14.086Z,9.90
2017-04-11T07:07:12.521Z,9.70
2017-04-11T07:08:10.916Z,9.70
2017-04-11T07:09:09.315Z,9.60
2017-04-11T07:10:08.142Z,9.50
2017-04-11T07:11:06.524Z,9.50
2017-04-11T07:12:04.937Z,9.50
2017-04-11T07:13:03.412Z,9.30
2017-04-11T07:14:01.801Z,8.90
2017-04-11T07:15:00.183Z,8.90
2017-04-11T07:15:58.652Z,8.90
2017-04-11T07:16:57.035Z,8.90
2017-04-11T07:17:55.484Z,9.00
2017-04-11T07:18:53.972Z,9.20
2017-04-11T07:19:52.387Z,9.50
2017-04-11T07:20:50.825Z,9.60
2017-04-11T07:21:49.244Z,9.70
2017-04-11T07:22:47.686Z,9.80
2017-04-11T07:23:46.400Z,9.90
2017-04-11T07:24:44.811Z,9.80
2017-04-11T07:25:43.249Z,9.80
2017-04-11T07:26:41.642Z,10.00
2017-04-11T07:27:40.048Z,10.00
2017-04-11T07:28:38.457Z,10.10
2017-04-11T07:29:36.949Z,10.40
2017-04-11T07:30:35.389Z,10.60
2017-04-11T07:31:33.815Z,10.80
2017-04-11T07:32:32.375Z,11.00
2017-04-11T07:33:30.782Z,11.30
2017-04-11T07:34:29.488Z,11.40
2017-04-11T07:35:27.937Z,11.30
2017-04-11T07:36:26.331Z,11.40
2017-04-11T07:37:25.507Z,11.40
2017-04-11T07:38:23.919Z,11.50
2017-04-11T07:39:22.329Z,11.50
2017-04-11T07:40:22.690Z,11.60
2017-04-11T07:41:21.127Z,11.60
2017-04-11T07:42:19.559Z,11.60
2017-04-11T07:43:19.947Z,11.60
2017-04-11T07:44:18.381Z,11.50
2017-04-11T07:45:16.768Z,11.50
2017-04-11T07:46:15.154Z,10.80
2017-04-11T07:47:13.587Z,10.30
2017-04-11T07:48:12.696Z,10.10
2017-04-11T07:49:11.102Z,10.20
2017-04-11T07:50:10.245Z,10.20
2017-04-11T07:51:08.650Z,10.30
2017-04-11T07:52:07.065Z,10.00
2017-04-11T07:53:05.471Z,10.30
2017-04-11T07:54:03.953Z,10.60
2017-04-11T07:55:02.339Z,11.10
2017-04-11T07:56:01.689Z,11.60
2017-04-11T07:57:00.145Z,12.00
2017-04-11T07:57:58.552Z,12.40
2017-04-11T07:58:56.990Z,12.80
2017-04-11T07:59:56.155Z,13.10
2017-04-11T08:00:54.541Z,13.40
2017-04-11T08:01:52.927Z,12.30
2017-04-11T08:02:51.690Z,12.40
2017-04-11T08:03:50.189Z,12.70
2017-04-11T08:04:48.591Z,12.80
2017-04-11T08:05:47.040Z,13.10
2017-04-11T08:06:45.510Z,13.50
2017-04-11T08:07:43.957Z,14.10
2017-04-11T08:08:43.166Z,14.10
2017-04-11T08:09:41.707Z,13.50
2017-04-11T08:10:40.225Z,13.60
2017-04-11T08:11:38.602Z,14.00
2017-04-11T08:12:37.015Z,14.30
2017-04-11T08:13:35.404Z,14.70
2017-04-11T08:14:33.863Z,15.00
2017-04-11T08:15:32.651Z,15.20
2017-04-11T08:16:31.067Z,15.30
2017-04-11T08:17:29.450Z,14.70
2017-04-11T08:18:28.125Z,14.90
2017-04-11T08:19:26.538Z,14.70
2017-04-11T08:20:25.369Z,15.10
2017-04-11T08:21:24.189Z,15.60
2017-04-11T08:22:22.616Z,15.90
2017-04-11T08:23:21.018Z,16.30
2017-04-11T08:24:20.222Z,15.40
2017-04-11T08:25:18.650Z,14.80
2017-04-11T08:26:17.073Z,15.20
2017-04-11T08:27:16.307Z,15.40
2017-04-11T08:28:14.762Z,15.50
2017-04-11T08:29:13.169Z,15.10
2017-04-11T08:30:11.554Z,15.20
2017-04-11T08:31:09.951Z,14.90
2017-04-11T08:32:09.183Z,13.40
2017-04-11T08:33:07.655Z,12.70
2017-04-11T08:34:06.064Z,12.90
2017-04-11T08:35:04.456Z,12.60
2017-04-11T08:36:02.886Z,12.40
2017-04-11T08:37:01.322Z,12.20
2017-04-11T08:37:59.697Z,12.50
2017-04-11T08:38:58.238Z,13.00
2017-04-11T08:39:56.979Z,13.50
2017-04-11T08:40:55.409Z,13.70
2017-04-11T08:41:53.828Z,14.00
2017-04-11T08:42:52.265Z,14.30
2017-04-11T08:43:52.909Z,15.00
2017-04-11T08:44:51.352Z,15.50
2017-04-11T08:45:49.776Z,16.00
2017-04-11T08:46:48.927Z,16.10
2017-04-11T08:47:47.935Z,16.20
2017-04-11T08:48:46.311Z,16.40
2017-04-11T08:49:45.438Z,16.50
2017-04-11T08:50:43.899Z,16.50
2017-04-11T08:51:42.336Z,16.40
2017-04-11T08:52:42.251Z,16.30
2017-04-11T08:53:41.419Z,16.20
2017-04-11T08:54:41.898Z,16.00
2017-04-11T08:55:40.944Z,15.60
2017-04-11T08:56:39.855Z,15.50
2017-04-11T08:57:38.905Z,15.40
2017-04-11T08:58:37.339Z,15.70
2017-04-11T08:59:36.606Z,15.70
2017-04-11T09:00:36.130Z,15.60
2017-04-11T09:01:34.620Z,15.50
2017-04-11T09:02:34.007Z,15.40
2017-04-11T09:03:32.407Z,15.40
2017-04-11T09:04:32.289Z,15.30
2017-04-11T09:05:31.478Z,15.20
2017-04-11T09:06:31.222Z,15.00
2017-04-11T09:07:29.625Z,14.60
2017-04-11T09:08:28.050Z,14.50
2017-04-11T09:09:26.432Z,14.30
2017-04-11T09:10:24.876Z,14.10
2017-04-11T09:11:23.396Z,14.00
2017-04-11T09:12:21.812Z,14.00
2017-04-11T09:13:20.616Z,13.90
2017-04-11T09:14:19.082Z,13.90
2017-04-11T09:15:17.481Z,13.80
2017-04-11T09:16:15.905Z,13.80
2017-04-11T09:17:14.346Z,13.80
2017-04-11T09:18:12.821Z,13.60
2017-04-11T09:19:12.018Z,13.60
2017-04-11T09:20:10.475Z,13.50
2017-04-11T09:21:08.879Z,13.60
2017-04-11T09:22:07.273Z,13.50
2017-04-11T09:23:06.469Z,13.50
2017-04-11T09:24:04.861Z,13.40
2017-04-11T09:25:04.329Z,13.40
2017-04-11T09:26:02.762Z,13.30
2017-04-11T09:27:01.159Z,13.30
2017-04-11T09:27:59.557Z,13.40
2017-04-11T09:28:57.950Z,13.50
2017-04-11T09:29:56.368Z,13.30
2017-04-11T09:30:54.788Z,13.30
2017-04-11T09:31:54.842Z,13.80
2017-04-11T09:32:55.059Z,14.50
2017-04-11T09:33:53.490Z,15.00
2017-04-11T09:34:51.942Z,15.60
2017-04-11T09:35:50.416Z,16.00
2017-04-11T09:36:49.926Z,16.60
2017-04-11T09:37:48.323Z,17.20
2017-04-11T09:38:47.103Z,17.60
2017-04-11T09:39:45.528Z,17.70
2017-04-11T09:40:45.448Z,17.90
2017-04-11T09:41:43.871Z,16.90
2017-04-11T09:42:42.281Z,16.60
2017-04-11T09:43:40.989Z,16.60
2017-04-11T09:44:39.372Z,16.40
2017-04-11T09:45:39.011Z,16.70
2017-04-11T09:46:38.113Z,16.80
2017-04-11T09:47:36.529Z,17.20
2017-04-11T09:48:34.956Z,17.40
2017-04-11T09:49:34.138Z,17.60
2017-04-11T09:50:32.548Z,17.90
2017-04-11T09:51:31.030Z,18.10
2017-04-11T09:52:30.007Z,17.90
2017-04-11T09:53:28.385Z,17.90
2017-04-11T09:54:26.819Z,17.80
2017-04-11T09:55:25.314Z,17.40
2017-04-11T09:56:23.718Z,17.20
2017-04-11T09:57:22.218Z,17.00
2017-04-11T09:58:20.658Z,16.80
2017-04-11T09:59:19.102Z,16.80
2017-04-11T10:00:17.812Z,16.70
2017-04-11T10:01:16.964Z,16.60
2017-04-11T10:02:15.422Z,16.80
2017-04-11T10:03:13.947Z,16.80
2017-04-11T10:04:13.450Z,17.10
2017-04-11T10:05:11.922Z,17.30
2017-04-11T10:06:10.351Z,17.50
2017-04-11T10:07:08.782Z,17.40
2017-04-11T10:08:07.247Z,17.40
2017-04-11T10:09:06.537Z,17.30
2017-04-11T10:10:04.980Z,17.40
2017-04-11T10:11:05.161Z,17.10
2017-04-11T10:12:03.627Z,17.10
2017-04-11T10:13:02.354Z,17.10
2017-04-11T10:14:00.768Z,17.10
2017-04-11T10:14:59.652Z,16.90
2017-04-11T10:15:58.148Z,17.00
2017-04-11T10:16:56.602Z,16.30
2017-04-11T10:17:55.072Z,15.90
2017-04-11T10:18:53.567Z,15.80
2017-04-11T10:19:52.802Z,16.00
2017-04-11T10:20:51.319Z,15.80
2017-04-11T10:21:49.725Z,15.70
2017-04-11T10:22:48.162Z,15.40
2017-04-11T10:23:47.348Z,13.70
2017-04-11T10:24:45.776Z,13.70
2017-04-11T10:25:44.246Z,13.80
2017-04-11T10:26:42.804Z,14.30
2017-04-11T10:27:41.571Z,14.70
2017-04-11T10:28:39.997Z,14.90
2017-04-11T10:29:38.408Z,15.10
2017-04-11T10:30:36.857Z,14.90
2017-04-11T10:31:36.003Z,15.00
2017-04-11T10:32:35.267Z,15.20
2017-04-11T10:33:33.673Z,15.40
2017-04-11T10:34:32.097Z,15.50
2017-04-11T10:35:30.535Z,15.70
2017-04-11T10:36:30.115Z,15.60
2017-04-11T10:37:28.538Z,15.80
2017-04-11T10:38:26.975Z,16.10
2017-04-11T10:39:25.655Z,16.10
2017-04-11T10:40:24.820Z,16.30
2017-04-11T10:41:23.256Z,16.40
2017-04-11T10:42:21.667Z,16.60
2017-04-11T10:43:20.127Z,16.80
2017-04-11T10:44:18.565Z,16.90
2017-04-11T10:45:16.992Z,17.00
2017-04-11T10:46:16.158Z,17.30
2017-04-11T10:47:14.580Z,17.70
2017-04-11T10:48:13.008Z,18.10
2017-04-11T10:49:12.204Z,18.30
2017-04-11T10:50:10.582Z,18.60
2017-04-11T10:51:09.762Z,18.80
2017-04-11T10:52:08.949Z,19.00
2017-04-11T10:53:08.476Z,19.30
2017-04-11T10:54:06.893Z,19.60
2017-04-11T10:55:05.351Z,19.70
2017-04-11T10:56:03.894Z,19.80
2017-04-11T10:57:02.352Z,19.70
2017-04-11T10:58:01.075Z,19.80
2017-04-11T10:58:59.489Z,19.80
2017-04-11T10:59:57.922Z,19.70
2017-04-11T11:00:56.338Z,19.60
2017-04-11T11:01:54.751Z,19.70
2017-04-11T11:02:53.188Z,19.80
2017-04-11T11:03:51.624Z,20.10
2017-04-11T11:04:51.710Z,20.20
2017-04-11T11:05:50.131Z,20.30
2017-04-11T11:06:48.638Z,20.30
2017-04-11T11:07:47.464Z,20.20
2017-04-11T11:08:45.889Z,20.20
2017-04-11T11:09:44.300Z,19.50
2017-04-11T11:10:42.822Z,19.10
2017-04-11T11:11:41.228Z,18.90
2017-04-11T11:12:40.391Z,18.70
2017-04-11T11:13:38.798Z,18.40
2017-04-11T11:14:36.470Z,18.40
2017-04-11T11:15:34.857Z,16.40
2017-04-11T11:16:33.309Z,16.30
2017-04-11T11:17:32.043Z,16.50
2017-04-11T11:18:30.482Z,16.20
2017-04-11T11:19:28.908Z,16.30
2017-04-11T11:20:27.529Z,16.40
2017-04-11T11:21:26.007Z,16.50
2017-04-11T11:22:24.502Z,16.80
2017-04-11T11:23:22.921Z,17.10
2017-04-11T11:24:21.328Z,16.60
2017-04-11T11:25:19.817Z,16.60
2017-04-11T11:26:18.202Z,16.60
2017-04-11T11:27:16.648Z,16.70
2017-04-11T11:28:15.115Z,16.60
2017-04-11T11:29:13.864Z,16.00
2017-04-11T11:30:12.263Z,15.30
2017-04-11T11:31:10.664Z,15.30
2017-04-11T11:32:09.054Z,15.10
2017-04-11T11:33:07.495Z,15.10
2017-04-11T11:34:05.956Z,15.00
2017-04-11T11:35:05.209Z,15.30
2017-04-11T11:36:03.612Z,15.60
2017-04-11T11:37:02.311Z,15.90
2017-04-11T11:38:00.764Z,15.50
2017-04-11T11:38:59.206Z,15.40
2017-04-11T11:39:57.652Z,15.40
2017-04-11T11:40:56.070Z,15.30
2017-04-11T11:41:54.476Z,15.30
2017-04-11T11:42:52.856Z,15.40
2017-04-11T11:43:51.252Z,15.20
2017-04-11T11:44:50.368Z,15.10
2017-04-11T11:45:48.770Z,15.10
2017-04-11T11:46:47.945Z,14.70
2017-04-11T11:47:46.470Z,14.90
2017-04-11T11:48:44.948Z,14.70
2017-04-11T11:49:44.148Z,14.60
2017-04-11T11:50:42.588Z,13.50
2017-04-11T11:51:40.982Z,13.30
2017-04-11T11:52:40.751Z,13.40
2017-04-11T11:53:39.222Z,12.90
2017-04-11T11:54:37.655Z,12.80
2017-04-11T11:55:36.671Z,13.00
2017-04-11T11:56:35.469Z,13.30
2017-04-11T11:57:33.892Z,13.70
2017-04-11T11:58:32.956Z,14.00
2017-04-11T11:59:32.400Z,14.20
2017-04-11T12:00:30.859Z,14.40
2017-04-11T12:01:29.262Z,14.60
2017-04-11T12:02:27.801Z,14.70
2017-04-11T12:03:26.275Z,14.80
2017-04-11T12:04:24.666Z,14.90
2017-04-11T12:05:23.081Z,14.90
2017-04-11T12:06:21.518Z,14.80
2017-04-11T12:07:19.929Z,14.80
2017-04-11T12:08:18.352Z,14.80
2017-04-11T12:09:16.766Z,14.90
2017-04-11T12:10:15.167Z,15.00
2017-04-11T12:11:13.884Z,15.00
2017-04-11T12:12:13.064Z,15.00
2017-04-11T12:13:11.459Z,15.00
2017-04-11T12:14:09.955Z,15.10
2017-04-11T12:15:08.347Z,15.00
2017-04-11T12:16:06.768Z,14.80
2017-04-11T12:17:05.189Z,14.80
2017-04-11T12:18:03.675Z,14.80
2017-04-11T12:19:02.033Z,14.90
2017-04-11T12:20:00.525Z,15.10
2017-04-11T12:20:58.940Z,15.10
2017-04-11T12:21:57.388Z,15.20
2017-04-11T12:22:55.859Z,15.30
2017-04-11T12:23:54.272Z,15.30
2017-04-11T12:24:52.649Z,15.20
2017-04-11T12:25:51.149Z,15.20
2017-04-11T12:26:50.097Z,15.20
2017-04-11T12:27:48.491Z,15.20
2017-04-11T12:28:47.659Z,15.10
2017-04-11T12:29:46.057Z,15.10
2017-04-11T12:30:45.250Z,15.00
2017-04-11T12:31:43.733Z,15.00
2017-04-11T12:32:42.145Z,15.00
2017-04-11T12:33:40.552Z,14.90
2017-04-11T12:34:41.960Z,14.60
2017-04-11T12:35:40.372Z,14.60
2017-04-11T12:36:38.788Z,14.70
2017-04-11T12:37:37.195Z,14.70
2017-04-11T12:38:35.602Z,14.70
2017-04-11T12:39:34.008Z,14.70
2017-04-11T12:40:32.422Z,14.70
2017-04-11T12:41:30.888Z,14.60
2017-04-11T12:42:29.304Z,14.50
2017-04-11T12:43:28.453Z,14.40
2017-04-11T12:44:26.841Z,14.30
2017-04-11T12:45:25.273Z,14.20
2017-04-11T12:46:24.400Z,14.20
2017-04-11T12:47:22.966Z,14.30
2017-04-11T12:48:21.366Z,14.40
2017-04-11T12:49:19.789Z,14.40
2017-04-11T12:50:18.254Z,14.40
2017-04-11T12:51:17.677Z,14.30
2017-04-11T12:52:16.096Z,14.20
2017-04-11T12:53:15.282Z,14.10